Time;durP1;ratioP1;P1;durP2;ratioP2;P2;SDS_P1;SDS_P2;PMS_P1;PMS_P2;Temp;Humidity;BMP_temperature;BMP_pressure;BME280_temperature;BME280_humidity;BME280_pressure;Samples;Min_cycle;Max_cycle;Signal;HPM_P1;HPM_P2
2022/04/19 00:00:31;;;;;;;;;;;;;;;;;;5015259;28;19920;-53
2022/04/19 00:02:56;;;;;;;;;;;;;;;;;;5014919;28;19917;-53
2022/04/19 00:05:21;;;;;;;;;;;;;;;;;;5047508;28;19917;-52
2022/04/19 00:07:46;;;;;;;;;;;;;;;;;;5015095;28;19905;-54
2022/04/19 00:10:12;;;;;;;;;;;;;;;;;;5047465;28;20000;-53
2022/04/19 00:12:37;;;;;;;;;;;;;;;;;;5014893;28;19909;-54
2022/04/19 00:15:02;;;;;;;;;;;;;;;;;;5015678;28;19906;-55
2022/04/19 00:17:27;;;;;;;;;;;;;;;;;;5015672;28;20346;-54
2022/04/19 00:19:52;;;;;;;;;;;;;;;;;;5051058;28;20433;-54
2022/04/19 00:22:19;;;;;;;;;;;;;;;;;;5033911;28;19909;-54
2022/04/19 00:24:44;;;;;;;;;;;;;;;;;;5034629;28;19928;-54
2022/04/19 00:27:09;;;;;;;;;;;;;;;;;;5034617;28;20007;-53
2022/04/19 00:29:34;;;;;;;;;;;;;;;;;;5033695;28;19905;-51
2022/04/19 00:31:59;;;;;;;;;;;;;;;;;;5034239;28;19931;-54
2022/04/19 00:34:25;;;;;;;;;;;;;;;;;;5034626;28;19909;-52
2022/04/19 00:36:50;;;;;;;;;;;;;;;;;;5015089;28;20399;-53
2022/04/19 00:39:15;;;;;;;;;;;;;;;;;;5014413;28;20278;-52
2022/04/19 00:41:40;;;;;;;;;;;;;;;;;;5029010;28;20261;-51
2022/04/19 00:44:07;;;;;;;;;;;;;;;;;;5034154;28;20230;-54
2022/04/19 00:46:33;;;;;;;;;;;;;;;;;;5033743;28;19975;-53
2022/04/19 00:48:59;;;;;;;;;;;;;;;;;;5032609;28;20247;-53
2022/04/19 00:51:24;;;;;;;;;;;;;;;;;;5032772;28;19909;-52
2022/04/19 00:53:49;;;;;;;;;;;;;;;;;;5022404;28;20309;-54
2022/04/19 00:56:15;;;;;;;;;;;;;;;;;;5013073;28;19945;-54
2022/04/19 00:58:40;;;;;;;;;;;;;;;;;;5012332;28;20001;-55
2022/04/19 01:01:06;;;;;;;;;;;;;;;;;;5014659;28;19913;-55
2022/04/19 01:03:31;;;;;;;;;;;;;;;;;;5045567;28;19917;-53
2022/04/19 01:06:03;;;;;;;;;;;;;;;;;;5046290;28;19944;-54
2022/04/19 01:08:30;;;;;;;;;;;;;;;;;;5045859;28;19953;-53
2022/04/19 01:13:17;;;;;;;;;;;;;;;;;;5045904;28;19905;-54
2022/04/19 01:13:53;;;;;;;;;;;;;;;;;;5030326;28;19909;-54
2022/04/19 01:16:19;;;;;;;;;;;;;;;;;;5043584;28;19978;-54
2022/04/19 01:18:44;;;;;;;;;;;;;;;;;;5013116;28;20354;-53
2022/04/19 01:21:09;;;;;;;;;;;;;;;;;;5024991;28;19920;-53
2022/04/19 01:23:35;;;;;;;;;;;;;;;;;;5051952;28;20063;-51
2022/04/19 01:26:02;;;;;;;;;;;;;;;;;;5036219;28;20348;-53
2022/04/19 01:28:29;;;;;;;;;;;;;;;;;;5052197;28;19905;-54
2022/04/19 01:30:54;;;;;;;;;;;;;;;;;;5053120;28;19913;-52
2022/04/19 01:33:21;;;;;;;;;;;;;;;;;;5052159;28;20345;-51
2022/04/19 01:35:47;;;;;;;;;;;;;;;;;;5052254;28;19909;-53
2022/04/19 01:38:13;;;;;;;;;;;;;;;;;;5052480;28;20234;-53
2022/04/19 01:40:39;;;;;;;;;;;;;;;;;;5035342;28;19916;-54
2022/04/19 01:43:07;;;;;;;;;;;;;;;;;;5052441;28;19920;-53
2022/04/19 01:46:02;;;;;;;;;;;;;;;;;;5023912;28;20278;-51
2022/04/19 01:48:29;;;;;;;;;;;;;;;;;;5012308;28;20401;-53
2022/04/19 01:50:54;;;;;;;;;;;;;;;;;;5012711;28;19913;-53
2022/04/19 01:53:20;;;;;;;;;;;;;;;;;;5022751;28;19913;-51
2022/04/19 01:55:46;;;;;;;;;;;;;;;;;;5033321;28;19909;-53
2022/04/19 01:58:35;;;;;;;;;;;;;;;;;;5036383;28;19909;-52
2022/04/19 02:01:02;;;;;;;;;;;;;;;;;;5035950;28;19913;-53
2022/04/19 02:03:27;;;;;;;;;;;;;;;;;;5035977;28;20063;-54
2022/04/19 02:05:53;;;;;;;;;;;;;;;;;;5036330;28;19909;-53
2022/04/19 02:08:18;;;;;;;;;;;;;;;;;;5036987;28;19909;-53
2022/04/19 02:10:44;;;;;;;;;;;;;;;;;;5036261;28;19916;-51
2022/04/19 02:13:09;;;;;;;;;;;;;;;;;;5035881;28;19909;-52
2022/04/19 02:15:34;;;;;;;;;;;;;;;;;;5022151;28;20331;-50
2022/04/19 02:18:20;;;;;;;;;;;;;;;;;;5014974;28;19910;-53
2022/04/19 02:20:45;;;;;;;;;;;;;;;;;;5015878;28;19913;-52
2022/04/19 02:23:10;;;;;;;;;;;;;;;;;;5016062;28;20405;-52
2022/04/19 02:25:35;;;;;;;;;;;;;;;;;;5015971;28;19906;-53
2022/04/19 02:28:07;;;;;;;;;;;;;;;;;;5016115;28;20259;-54
2022/04/19 02:30:34;;;;;;;;;;;;;;;;;;5016179;28;20309;-53
2022/04/19 02:33:06;;;;;;;;;;;;;;;;;;5015719;28;20274;-52
2022/04/19 02:35:34;;;;;;;;;;;;;;;;;;5048688;28;19999;-53
2022/04/19 02:38:01;;;;;;;;;;;;;;;;;;5016748;28;20258;-52
2022/04/19 02:40:32;;;;;;;;;;;;;;;;;;5015312;28;20397;-50
2022/04/19 02:43:00;;;;;;;;;;;;;;;;;;5016393;28;20366;-50
2022/04/19 02:45:25;;;;;;;;;;;;;;;;;;5015226;28;19909;-55
2022/04/19 02:47:51;;;;;;;;;;;;;;;;;;5015446;28;20354;-51
2022/04/19 02:50:16;;;;;;;;;;;;;;;;;;5048984;28;20433;-52
2022/04/19 02:52:42;;;;;;;;;;;;;;;;;;5031969;28;19912;-50
2022/04/19 02:55:07;;;;;;;;;;;;;;;;;;5016005;28;19939;-50
2022/04/19 02:57:33;;;;;;;;;;;;;;;;;;5014958;28;19917;-53
2022/04/19 02:59:58;;;;;;;;;;;;;;;;;;5015398;28;19910;-53
2022/04/19 03:02:24;;;;;;;;;;;;;;;;;;5015798;28;19909;-53
2022/04/19 03:04:49;;;;;;;;;;;;;;;;;;5016592;28;19983;-53
2022/04/19 03:07:15;;;;;;;;;;;;;;;;;;5032265;28;19944;-53
2022/04/19 03:09:40;;;;;;;;;;;;;;;;;;5032253;28;19913;-51
2022/04/19 03:12:06;;;;;;;;;;;;;;;;;;5028901;28;19917;-53
2022/04/19 03:14:32;;;;;;;;;;;;;;;;;;5020312;28;19960;-50
2022/04/19 03:16:57;;;;;;;;;;;;;;;;;;5015271;28;19909;-52
2022/04/19 03:19:23;;;;;;;;;;;;;;;;;;5015552;28;19909;-53
2022/04/19 03:21:48;;;;;;;;;;;;;;;;;;5015153;28;19972;-53
2022/04/19 03:30:01;;;;;;;;;;;;;;;;;;5033232;28;19909;-52
2022/04/19 03:32:30;;;;;;;;;;;;;;;;;;5022093;28;19915;-52
2022/04/19 03:34:56;;;;;;;;;;;;;;;;;;5031714;28;19959;-50
2022/04/19 03:37:22;;;;;;;;;;;;;;;;;;5014557;28;20003;-52
2022/04/19 03:39:47;;;;;;;;;;;;;;;;;;5014878;28;20004;-51
2022/04/19 03:42:12;;;;;;;;;;;;;;;;;;5014570;28;19913;-52
2022/04/19 03:44:37;;;;;;;;;;;;;;;;;;5014232;28;20425;-52
2022/04/19 03:47:09;;;;;;;;;;;;;;;;;;5015241;28;20425;-50
2022/04/19 03:49:35;;;;;;;;;;;;;;;;;;5014505;28;19909;-53
2022/04/19 03:52:00;;;;;;;;;;;;;;;;;;5014641;28;20257;-53
2022/04/19 03:54:25;;;;;;;;;;;;;;;;;;5015342;28;20366;-52
2022/04/19 03:56:52;;;;;;;;;;;;;;;;;;5014500;28;19925;-53
2022/04/19 03:59:18;;;;;;;;;;;;;;;;;;5014255;28;19916;-54
2022/04/19 04:01:43;;;;;;;;;;;;;;;;;;5014517;28;19905;-53
2022/04/19 04:04:09;;;;;;;;;;;;;;;;;;5031579;28;19924;-53
2022/04/19 04:06:35;;;;;;;;;;;;;;;;;;5014232;28;20373;-53
2022/04/19 04:09:01;;;;;;;;;;;;;;;;;;5014198;28;19913;-54
2022/04/19 04:11:26;;;;;;;;;;;;;;;;;;5014811;28;20005;-54
2022/04/19 04:14:02;;;;;;;;;;;;;;;;;;5029029;28;19913;-51
2022/04/19 04:16:27;;;;;;;;;;;;;;;;;;5015017;28;20311;-53
2022/04/19 04:18:53;;;;;;;;;;;;;;;;;;5014912;28;19917;-53
2022/04/19 04:21:18;;;;;;;;;;;;;;;;;;5014048;28;19917;-52
2022/04/19 04:23:43;;;;;;;;;;;;;;;;;;5014472;28;19917;-53
2022/04/19 04:26:14;;;;;;;;;;;;;;;;;;5013721;28;19935;-52
2022/04/19 04:28:39;;;;;;;;;;;;;;;;;;5020794;28;19909;-53
2022/04/19 04:31:06;;;;;;;;;;;;;;;;;;5033870;28;19956;-54
2022/04/19 04:33:31;;;;;;;;;;;;;;;;;;5033647;28;19909;-50
2022/04/19 04:35:56;;;;;;;;;;;;;;;;;;5033814;28;19951;-52
2022/04/19 04:38:21;;;;;;;;;;;;;;;;;;5033102;28;19913;-51
2022/04/19 04:40:46;;;;;;;;;;;;;;;;;;5033648;28;19916;-49
2022/04/19 04:43:12;;;;;;;;;;;;;;;;;;5033589;28;20298;-51
2022/04/19 04:45:38;;;;;;;;;;;;;;;;;;5033725;28;19909;-49
2022/04/19 04:50:47;;;;;;;;;;;;;;;;;;5032836;28;19996;-50
2022/04/19 04:53:12;;;;;;;;;;;;;;;;;;5033724;28;20004;-49
2022/04/19 04:55:42;;;;;;;;;;;;;;;;;;5034069;28;20246;-50
2022/04/19 04:58:14;;;;;;;;;;;;;;;;;;5033258;28;19905;-51
2022/04/19 05:00:40;;;;;;;;;;;;;;;;;;5024170;28;19909;-54
2022/04/19 05:03:07;;;;;;;;;;;;;;;;;;5024799;28;20350;-53
2022/04/19 05:05:33;;;;;;;;;;;;;;;;;;5033044;28;19909;-51
2022/04/19 05:08:01;;;;;;;;;;;;;;;;;;5033569;28;19909;-53
2022/04/19 05:10:27;;;;;;;;;;;;;;;;;;5032841;28;19909;-50
2022/04/19 05:12:53;;;;;;;;;;;;;;;;;;5033358;28;19972;-53
2022/04/19 05:15:22;;;;;;;;;;;;;;;;;;5027800;28;19928;-53
2022/04/19 05:17:49;;;;;;;;;;;;;;;;;;5013005;28;19909;-52
2022/04/19 05:20:14;;;;;;;;;;;;;;;;;;5008306;28;19920;-52
2022/04/19 05:22:40;;;;;;;;;;;;;;;;;;5015697;28;19996;-51
2022/04/19 05:25:06;;;;;;;;;;;;;;;;;;5013231;28;19916;-53
2022/04/19 05:27:31;;;;;;;;;;;;;;;;;;5028050;28;19975;-52
2022/04/19 05:29:57;;;;;;;;;;;;;;;;;;5032397;28;19960;-52
2022/04/19 05:32:22;;;;;;;;;;;;;;;;;;5033079;28;20320;-52
2022/04/19 05:34:49;;;;;;;;;;;;;;;;;;5032529;28;19909;-53
2022/04/19 05:37:14;;;;;;;;;;;;;;;;;;5032706;28;19963;-51
2022/04/19 05:39:40;;;;;;;;;;;;;;;;;;5032784;28;19905;-53
2022/04/19 05:42:05;;;;;;;;;;;;;;;;;;5032509;28;20346;-53
2022/04/19 05:44:30;;;;;;;;;;;;;;;;;;5032689;28;19960;-53
2022/04/19 05:46:55;;;;;;;;;;;;;;;;;;5032456;28;19909;-53
2022/04/19 05:49:21;;;;;;;;;;;;;;;;;;5032490;28;20317;-50
2022/04/19 05:51:51;;;;;;;;;;;;;;;;;;5032786;28;20363;-52
2022/04/19 05:54:16;;;;;;;;;;;;;;;;;;5032020;28;19912;-52
2022/04/19 05:56:43;;;;;;;;;;;;;;;;;;5032751;28;20003;-53
2022/04/19 05:59:08;;;;;;;;;;;;;;;;;;5029251;28;19909;-51
2022/04/19 06:07:01;;;;;;;;;;;;;;;;;;5032018;28;19909;-54
2022/04/19 06:09:27;;;;;;;;;;;;;;;;;;5032177;28;19910;-53
2022/04/19 06:11:52;;;;;;;;;;;;;;;;;;5032567;28;20000;-54
2022/04/19 06:14:17;;;;;;;;;;;;;;;;;;5026492;28;19909;-52
2022/04/19 06:16:42;;;;;;;;;;;;;;;;;;5015373;28;19956;-51
2022/04/19 06:19:09;;;;;;;;;;;;;;;;;;5031881;28;19909;-54
2022/04/19 06:21:35;;;;;;;;;;;;;;;;;;5032514;28;19913;-53
2022/04/19 06:24:03;;;;;;;;;;;;;;;;;;5032506;28;19967;-54
2022/04/19 06:26:28;;;;;;;;;;;;;;;;;;5032252;28;20007;-53
2022/04/19 06:28:59;;;;;;;;;;;;;;;;;;5033027;28;19963;-54
2022/04/19 06:31:30;;;;;;;;;;;;;;;;;;5031885;28;19913;-53
2022/04/19 06:34:02;;;;;;;;;;;;;;;;;;5031569;28;19913;-53
2022/04/19 06:36:41;;;;;;;;;;;;;;;;;;5032648;28;19909;-57
2022/04/19 06:39:07;;;;;;;;;;;;;;;;;;5031809;28;19909;-54
2022/04/19 06:41:32;;;;;;;;;;;;;;;;;;5032767;28;19913;-57
2022/04/19 06:43:59;;;;;;;;;;;;;;;;;;5035457;28;20366;-53
2022/04/19 06:46:26;;;;;;;;;;;;;;;;;;5035743;28;19909;-54
2022/04/19 06:49:01;;;;;;;;;;;;;;;;;;5036042;28;20219;-55
2022/04/19 06:51:27;;;;;;;;;;;;;;;;;;5035520;28;19916;-55
2022/04/19 06:53:52;;;;;;;;;;;;;;;;;;5035600;28;19948;-55
2022/04/19 06:56:47;;;;;;;;;;;;;;;;;;5036351;28;19913;-55
2022/04/19 06:59:13;;;;;;;;;;;;;;;;;;5035480;28;19913;-54
2022/04/19 07:01:40;;;;;;;;;;;;;;;;;;5035968;28;19909;-54
2022/04/19 07:04:39;;;;;;;;;;;;;;;;;;5036684;28;20261;-54
2022/04/19 07:07:07;;;;;;;;;;;;;;;;;;5035515;28;19995;-54
2022/04/19 07:09:32;;;;;;;;;;;;;;;;;;5036218;28;20000;-55
2022/04/19 07:11:59;;;;;;;;;;;;;;;;;;5035032;28;19910;-53
2022/04/19 07:14:27;;;;;;;;;;;;;;;;;;5036077;28;20280;-55
2022/04/19 07:16:58;;;;;;;;;;;;;;;;;;5036731;28;20338;-54
2022/04/19 07:26:37;;;;;;;;;;;;;;;;;;5034769;28;19908;-55
2022/04/19 07:27:45;;;;;;;;;;;;;;;;;;5032235;28;20433;-56
2022/04/19 07:30:11;;;;;;;;;;;;;;;;;;5015390;28;19910;-54
2022/04/19 07:32:37;;;;;;;;;;;;;;;;;;5015455;28;19909;-54
2022/04/19 07:35:09;;;;;;;;;;;;;;;;;;5014899;28;19956;-55
2022/04/19 07:37:34;;;;;;;;;;;;;;;;;;5015159;28;19910;-57
2022/04/19 07:39:59;;;;;;;;;;;;;;;;;;5014918;28;19905;-55
2022/04/19 07:42:24;;;;;;;;;;;;;;;;;;5015517;28;19996;-56
2022/04/19 07:44:51;;;;;;;;;;;;;;;;;;5015034;28;19917;-56
2022/04/19 07:47:18;;;;;;;;;;;;;;;;;;5014250;28;19909;-55
2022/04/19 07:49:43;;;;;;;;;;;;;;;;;;5015719;28;19909;-55
2022/04/19 07:52:09;;;;;;;;;;;;;;;;;;5014259;28;20024;-55
2022/04/19 07:54:35;;;;;;;;;;;;;;;;;;5023370;28;20309;-55
2022/04/19 07:57:01;;;;;;;;;;;;;;;;;;5034530;28;20373;-56
2022/04/19 07:59:26;;;;;;;;;;;;;;;;;;5034287;28;19909;-54
2022/04/19 08:01:51;;;;;;;;;;;;;;;;;;5035258;28;19919;-57
2022/04/19 08:04:17;;;;;;;;;;;;;;;;;;5033747;28;20015;-56
2022/04/19 08:06:43;;;;;;;;;;;;;;;;;;5034118;28;20310;-56
2022/04/19 08:09:08;;;;;;;;;;;;;;;;;;5035395;28;19916;-55
2022/04/19 08:11:34;;;;;;;;;;;;;;;;;;5034994;28;19909;-56
2022/04/19 08:13:59;;;;;;;;;;;;;;;;;;5032658;28;19909;-56
2022/04/19 08:16:25;;;;;;;;;;;;;;;;;;5034768;28;20279;-56
2022/04/19 08:18:50;;;;;;;;;;;;;;;;;;5034370;28;19909;-56
2022/04/19 08:21:15;;;;;;;;;;;;;;;;;;5028567;28;19987;-56
2022/04/19 08:23:42;;;;;;;;;;;;;;;;;;5013644;28;19918;-55
2022/04/19 08:26:13;;;;;;;;;;;;;;;;;;5014497;28;20365;-56
2022/04/19 08:28:38;;;;;;;;;;;;;;;;;;5013761;28;19910;-56
2022/04/19 08:31:03;;;;;;;;;;;;;;;;;;5013404;28;19909;-55
2022/04/19 08:33:31;;;;;;;;;;;;;;;;;;5019421;28;19915;-54
2022/04/19 08:35:57;;;;;;;;;;;;;;;;;;5034818;28;19909;-56
2022/04/19 08:38:23;;;;;;;;;;;;;;;;;;5034228;28;19952;-55
2022/04/19 08:40:48;;;;;;;;;;;;;;;;;;5028528;28;19956;-55
2022/04/19 08:43:13;;;;;;;;;;;;;;;;;;5013135;28;19917;-56
2022/04/19 08:45:39;;;;;;;;;;;;;;;;;;5026725;28;19909;-56
2022/04/19 08:48:04;;;;;;;;;;;;;;;;;;5033190;28;19909;-56
2022/04/19 08:50:30;;;;;;;;;;;;;;;;;;5034165;28;19909;-56
2022/04/19 08:58:23;;;;;;;;;;;;;;;;;;5034382;28;20381;-55
2022/04/19 09:00:48;;;;;;;;;;;;;;;;;;5033754;28;19928;-56
2022/04/19 09:03:14;;;;;;;;;;;;;;;;;;5032639;28;19917;-55
2022/04/19 09:05:40;;;;;;;;;;;;;;;;;;5033899;28;20253;-56
2022/04/19 09:08:05;;;;;;;;;;;;;;;;;;5034061;28;19909;-56
2022/04/19 09:10:30;;;;;;;;;;;;;;;;;;5034400;28;19905;-56
2022/04/19 09:12:56;;;;;;;;;;;;;;;;;;5034038;28;19986;-56
2022/04/19 09:15:21;;;;;;;;;;;;;;;;;;5033883;28;19952;-57
2022/04/19 09:17:46;;;;;;;;;;;;;;;;;;5034403;28;19909;-56
2022/04/19 09:20:12;;;;;;;;;;;;;;;;;;5033993;28;19959;-57
2022/04/19 09:22:37;;;;;;;;;;;;;;;;;;5034385;28;20266;-56
2022/04/19 09:25:02;;;;;;;;;;;;;;;;;;5032268;28;19925;-56
2022/04/19 09:27:28;;;;;;;;;;;;;;;;;;5032572;28;20003;-56
2022/04/19 09:29:53;;;;;;;;;;;;;;;;;;5034505;28;19996;-57
2022/04/19 09:32:18;;;;;;;;;;;;;;;;;;5033781;28;19996;-56
2022/04/19 09:34:44;;;;;;;;;;;;;;;;;;5033913;28;19941;-55
2022/04/19 09:37:10;;;;;;;;;;;;;;;;;;5033732;28;19909;-56
2022/04/19 09:39:37;;;;;;;;;;;;;;;;;;5027351;28;19963;-57
2022/04/19 09:42:03;;;;;;;;;;;;;;;;;;5033759;28;19985;-56
2022/04/19 09:44:29;;;;;;;;;;;;;;;;;;5033719;28;20346;-57
2022/04/19 09:46:54;;;;;;;;;;;;;;;;;;5033705;28;19963;-57
2022/04/19 09:49:19;;;;;;;;;;;;;;;;;;5033610;28;19910;-57
2022/04/19 09:51:44;;;;;;;;;;;;;;;;;;5032740;28;19909;-57
2022/04/19 09:54:11;;;;;;;;;;;;;;;;;;5032663;28;19915;-56
2022/04/19 09:56:36;;;;;;;;;;;;;;;;;;5032220;28;20384;-57
2022/04/19 09:59:01;;;;;;;;;;;;;;;;;;5032596;28;19909;-57
2022/04/19 10:09:28;;;;;;;;;;;;;;;;;;5033019;28;19909;-56
2022/04/19 10:11:59;;;;;;;;;;;;;;;;;;5031997;28;20260;-56
2022/04/19 10:14:24;;;;;;;;;;;;;;;;;;5033424;28;19984;-58
2022/04/19 10:16:50;;;;;;;;;;;;;;;;;;5034299;28;19905;-56
2022/04/19 10:19:15;;;;;;;;;;;;;;;;;;5037641;28;19963;-56
2022/04/19 10:21:41;;;;;;;;;;;;;;;;;;5037741;28;19917;-56
2022/04/19 10:24:07;;;;;;;;;;;;;;;;;;5035731;28;19967;-56
2022/04/19 10:26:32;;;;;;;;;;;;;;;;;;5036050;28;19913;-56
2022/04/19 10:28:58;;;;;;;;;;;;;;;;;;5036987;28;19956;-56
2022/04/19 10:31:24;;;;;;;;;;;;;;;;;;5035946;28;20281;-58
2022/04/19 10:33:49;;;;;;;;;;;;;;;;;;5037029;28;19916;-57
2022/04/19 10:36:14;;;;;;;;;;;;;;;;;;5035651;28;19951;-56
2022/04/19 10:38:40;;;;;;;;;;;;;;;;;;5036377;28;19974;-56
2022/04/19 10:41:05;;;;;;;;;;;;;;;;;;5035451;28;20364;-58
2022/04/19 10:43:30;;;;;;;;;;;;;;;;;;5035953;28;19956;-58
2022/04/19 10:45:56;;;;;;;;;;;;;;;;;;5036876;28;20004;-57
2022/04/19 10:48:22;;;;;;;;;;;;;;;;;;5036540;28;20323;-57
2022/04/19 10:50:51;;;;;;;;;;;;;;;;;;5037277;28;19998;-57
2022/04/19 10:53:16;;;;;;;;;;;;;;;;;;5033944;28;19913;-57
2022/04/19 10:55:41;;;;;;;;;;;;;;;;;;5036588;28;19910;-57
2022/04/19 10:58:12;;;;;;;;;;;;;;;;;;5037478;28;19956;-57
2022/04/19 11:00:37;;;;;;;;;;;;;;;;;;5034933;28;19916;-57
2022/04/19 11:03:02;;;;;;;;;;;;;;;;;;5037623;28;20008;-57
2022/04/19 11:05:29;;;;;;;;;;;;;;;;;;5035222;28;19909;-57
2022/04/19 11:07:54;;;;;;;;;;;;;;;;;;5020987;28;19956;-57
2022/04/19 11:10:19;;;;;;;;;;;;;;;;;;5016632;28;19941;-57
2022/04/19 11:12:45;;;;;;;;;;;;;;;;;;5022332;28;20261;-57
2022/04/19 11:15:10;;;;;;;;;;;;;;;;;;5035987;28;20261;-58
2022/04/19 11:17:35;;;;;;;;;;;;;;;;;;5036134;28;20328;-57
2022/04/19 11:20:00;;;;;;;;;;;;;;;;;;5036189;28;19909;-56
2022/04/19 11:22:29;;;;;;;;;;;;;;;;;;5035529;28;19963;-57
2022/04/19 11:24:54;;;;;;;;;;;;;;;;;;5034519;28;19982;-56
2022/04/19 11:27:19;;;;;;;;;;;;;;;;;;5036642;28;20288;-57
2022/04/19 11:29:45;;;;;;;;;;;;;;;;;;5034838;28;19991;-57
2022/04/19 11:32:10;;;;;;;;;;;;;;;;;;5027514;28;19971;-57
2022/04/19 11:34:35;;;;;;;;;;;;;;;;;;5027092;28;20374;-58
2022/04/19 11:37:02;;;;;;;;;;;;;;;;;;5017035;28;19910;-58
2022/04/19 11:47:38;;;;;;;;;;;;;;;;;;5030808;28;19914;-57
2022/04/19 11:50:04;;;;;;;;;;;;;;;;;;5045147;28;19916;-58
2022/04/19 11:52:29;;;;;;;;;;;;;;;;;;5032951;28;19916;-58
2022/04/19 11:54:56;;;;;;;;;;;;;;;;;;5035616;28;19951;-58
2022/04/19 11:57:21;;;;;;;;;;;;;;;;;;5035554;28;19909;-58
2022/04/19 11:59:47;;;;;;;;;;;;;;;;;;5036066;28;20269;-58
2022/04/19 12:02:13;;;;;;;;;;;;;;;;;;5035066;28;20280;-58
2022/04/19 12:04:38;;;;;;;;;;;;;;;;;;5035328;28;20358;-57
2022/04/19 12:07:05;;;;;;;;;;;;;;;;;;5016555;28;20005;-57
2022/04/19 12:09:30;;;;;;;;;;;;;;;;;;5015258;28;19916;-57
2022/04/19 12:11:56;;;;;;;;;;;;;;;;;;5013789;28;19909;-58
2022/04/19 12:14:21;;;;;;;;;;;;;;;;;;5015110;28;19917;-57
2022/04/19 12:16:46;;;;;;;;;;;;;;;;;;5015468;28;19910;-57
2022/04/19 12:19:12;;;;;;;;;;;;;;;;;;5015427;28;19909;-57
2022/04/19 12:21:40;;;;;;;;;;;;;;;;;;5012699;28;19914;-58
2022/04/19 12:24:05;;;;;;;;;;;;;;;;;;5011856;28;19924;-58
2022/04/19 12:26:31;;;;;;;;;;;;;;;;;;5014808;28;19910;-58
2022/04/19 12:28:56;;;;;;;;;;;;;;;;;;5013579;28;20269;-57
2022/04/19 12:31:21;;;;;;;;;;;;;;;;;;5015089;28;19913;-58
2022/04/19 12:33:46;;;;;;;;;;;;;;;;;;5014747;28;20299;-58
2022/04/19 12:36:12;;;;;;;;;;;;;;;;;;5015346;28;19910;-57
2022/04/19 12:38:37;;;;;;;;;;;;;;;;;;5014655;28;19921;-58
2022/04/19 12:41:02;;;;;;;;;;;;;;;;;;5046906;28;19917;-58
2022/04/19 12:43:28;;;;;;;;;;;;;;;;;;5047021;28;19936;-57
2022/04/19 12:45:53;;;;;;;;;;;;;;;;;;5020243;28;19992;-56
2022/04/19 12:48:19;;;;;;;;;;;;;;;;;;5034838;28;19915;-57
2022/04/19 12:50:44;;;;;;;;;;;;;;;;;;5030534;28;19917;-58
2022/04/19 12:53:09;;;;;;;;;;;;;;;;;;5022963;28;19916;-58
2022/04/19 12:58:37;;;;;;;;;;;;;;;;;;5014319;28;19917;-58
2022/04/19 13:01:04;;;;;;;;;;;;;;;;;;5015954;28;19913;-58
2022/04/19 13:03:29;;;;;;;;;;;;;;;;;;5034239;28;20369;-56
2022/04/19 13:14:07;;;;;;;;;;;;;;;;;;5020990;28;19910;-58
2022/04/19 13:16:32;;;;;;;;;;;;;;;;;;5014370;28;19916;-58
2022/04/19 13:18:58;;;;;;;;;;;;;;;;;;5012284;28;19909;-58
2022/04/19 13:21:26;;;;;;;;;;;;;;;;;;5014109;28;20251;-58
2022/04/19 13:23:51;;;;;;;;;;;;;;;;;;5014427;28;19957;-58
2022/04/19 13:26:16;;;;;;;;;;;;;;;;;;5011938;28;19960;-59
2022/04/19 13:28:41;;;;;;;;;;;;;;;;;;5014482;28;19996;-59
2022/04/19 13:31:06;;;;;;;;;;;;;;;;;;5017932;28;19916;-59
2022/04/19 13:33:32;;;;;;;;;;;;;;;;;;5014033;28;19909;-59
2022/04/19 13:35:57;;;;;;;;;;;;;;;;;;5044358;28;19909;-58
2022/04/19 13:38:25;;;;;;;;;;;;;;;;;;5014039;28;19967;-58
2022/04/19 13:40:50;;;;;;;;;;;;;;;;;;5014354;28;19916;-58
2022/04/19 13:43:16;;;;;;;;;;;;;;;;;;5015476;28;19909;-59
2022/04/19 13:45:41;;;;;;;;;;;;;;;;;;5013170;28;19906;-59
2022/04/19 13:48:06;;;;;;;;;;;;;;;;;;5021028;28;19916;-58
2022/04/19 13:50:31;;;;;;;;;;;;;;;;;;5019665;28;19936;-58
2022/04/19 13:52:56;;;;;;;;;;;;;;;;;;5018910;28;20003;-59
2022/04/19 13:55:22;;;;;;;;;;;;;;;;;;5051133;28;20013;-59
2022/04/19 13:57:48;;;;;;;;;;;;;;;;;;5052007;28;19963;-58
2022/04/19 14:00:13;;;;;;;;;;;;;;;;;;5018570;28;19909;-58
2022/04/19 14:02:38;;;;;;;;;;;;;;;;;;5020249;28;20004;-58
2022/04/19 14:05:03;;;;;;;;;;;;;;;;;;5028839;28;20015;-59
2022/04/19 14:07:29;;;;;;;;;;;;;;;;;;5038845;28;19909;-59
2022/04/19 14:09:54;;;;;;;;;;;;;;;;;;5038618;28;19909;-60
2022/04/19 14:12:20;;;;;;;;;;;;;;;;;;5040442;28;19905;-59
2022/04/19 14:14:45;;;;;;;;;;;;;;;;;;5039752;28;19909;-59
2022/04/19 14:17:11;;;;;;;;;;;;;;;;;;5040823;28;19909;-58
2022/04/19 14:19:36;;;;;;;;;;;;;;;;;;5037205;28;19909;-59
2022/04/19 14:22:01;;;;;;;;;;;;;;;;;;5040430;28;19966;-59
2022/04/19 14:24:27;;;;;;;;;;;;;;;;;;5039852;28;20334;-59
2022/04/19 14:26:52;;;;;;;;;;;;;;;;;;5039765;28;19913;-60
2022/04/19 14:34:45;;;;;;;;;;;;;;;;;;5039518;28;20320;-59
2022/04/19 14:37:11;;;;;;;;;;;;;;;;;;5038920;28;20362;-58
2022/04/19 14:39:36;;;;;;;;;;;;;;;;;;5039543;28;20270;-60
2022/04/19 14:42:03;;;;;;;;;;;;;;;;;;5039756;28;19955;-59
2022/04/19 14:44:28;;;;;;;;;;;;;;;;;;5040110;28;19913;-60
2022/04/19 14:46:55;;;;;;;;;;;;;;;;;;5038234;28;20251;-59
2022/04/19 14:49:20;;;;;;;;;;;;;;;;;;5039697;28;19909;-59
2022/04/19 14:54:29;;;;;;;;;;;;;;;;;;5038084;28;19909;-58
2022/04/19 14:56:54;;;;;;;;;;;;;;;;;;5039991;28;19909;-59
2022/04/19 14:59:19;;;;;;;;;;;;;;;;;;5037921;28;19937;-58
2022/04/19 15:01:45;;;;;;;;;;;;;;;;;;5039286;28;20269;-58
2022/04/19 15:04:10;;;;;;;;;;;;;;;;;;5035613;28;19944;-59
2022/04/19 15:06:35;;;;;;;;;;;;;;;;;;5036541;28;20292;-58
2022/04/19 15:09:00;;;;;;;;;;;;;;;;;;5036846;28;19959;-58
2022/04/19 15:11:25;;;;;;;;;;;;;;;;;;5036566;28;20309;-59
2022/04/19 15:13:51;;;;;;;;;;;;;;;;;;5036064;28;19909;-59
2022/04/19 15:16:17;;;;;;;;;;;;;;;;;;5036389;28;19916;-59
2022/04/19 15:18:42;;;;;;;;;;;;;;;;;;5036230;28;19909;-59
2022/04/19 15:21:07;;;;;;;;;;;;;;;;;;5037180;28;19920;-59
2022/04/19 15:23:32;;;;;;;;;;;;;;;;;;5035820;28;19924;-59
2022/04/19 15:25:58;;;;;;;;;;;;;;;;;;5036039;28;19909;-59
2022/04/19 15:28:23;;;;;;;;;;;;;;;;;;5036768;28;19909;-59
2022/04/19 15:30:48;;;;;;;;;;;;;;;;;;5033539;28;19991;-59
2022/04/19 15:33:13;;;;;;;;;;;;;;;;;;5036862;28;19909;-59
2022/04/19 15:35:38;;;;;;;;;;;;;;;;;;5034650;28;20235;-59
2022/04/19 15:38:04;;;;;;;;;;;;;;;;;;5034657;28;20057;-61
2022/04/19 15:40:29;;;;;;;;;;;;;;;;;;5035912;28;19905;-58
2022/04/19 15:42:54;;;;;;;;;;;;;;;;;;5035669;28;19932;-58
2022/04/19 15:45:20;;;;;;;;;;;;;;;;;;5035879;28;19908;-58
2022/04/19 15:47:45;;;;;;;;;;;;;;;;;;5035898;28;19909;-58
2022/04/19 15:50:11;;;;;;;;;;;;;;;;;;5035622;28;19988;-58
2022/04/19 15:52:37;;;;;;;;;;;;;;;;;;5034348;28;19916;-58
2022/04/19 15:55:02;;;;;;;;;;;;;;;;;;5035663;28;19917;-58
2022/04/19 15:57:27;;;;;;;;;;;;;;;;;;5035594;28;19909;-58
2022/04/19 15:59:52;;;;;;;;;;;;;;;;;;5035047;28;19905;-59
2022/04/19 16:02:18;;;;;;;;;;;;;;;;;;5035552;28;20269;-59
2022/04/19 16:04:43;;;;;;;;;;;;;;;;;;5035998;28;19905;-58
2022/04/19 16:07:08;;;;;;;;;;;;;;;;;;5035251;28;20239;-59
2022/04/19 16:09:33;;;;;;;;;;;;;;;;;;5035356;28;20304;-61
2022/04/19 16:11:59;;;;;;;;;;;;;;;;;;5017791;28;19910;-58
2022/04/19 16:14:24;;;;;;;;;;;;;;;;;;5014901;28;19917;-58
2022/04/19 16:25:01;;;;;;;;;;;;;;;;;;5035128;28;19912;-59
2022/04/19 16:27:28;;;;;;;;;;;;;;;;;;5033400;28;20372;-59
2022/04/19 16:29:53;;;;;;;;;;;;;;;;;;5035578;28;20231;-59
2022/04/19 16:32:18;;;;;;;;;;;;;;;;;;5033586;28;19905;-59
2022/04/19 16:34:44;;;;;;;;;;;;;;;;;;5029491;28;20160;-59
2022/04/19 16:37:11;;;;;;;;;;;;;;;;;;5015933;28;19909;-58
2022/04/19 16:39:36;;;;;;;;;;;;;;;;;;5014894;28;19909;-58
2022/04/19 16:42:01;;;;;;;;;;;;;;;;;;5015066;28;20037;-58
2022/04/19 16:44:28;;;;;;;;;;;;;;;;;;5014641;28;20278;-58
2022/04/19 16:46:53;;;;;;;;;;;;;;;;;;5014688;28;19947;-58
2022/04/19 16:49:18;;;;;;;;;;;;;;;;;;5015015;28;19909;-58
2022/04/19 16:51:43;;;;;;;;;;;;;;;;;;5014623;28;19913;-58
2022/04/19 16:54:09;;;;;;;;;;;;;;;;;;5030601;28;19925;-58
2022/04/19 16:56:34;;;;;;;;;;;;;;;;;;5014698;28;19920;-58
2022/04/19 16:59:01;;;;;;;;;;;;;;;;;;5014539;28;19915;-58
2022/04/19 17:01:26;;;;;;;;;;;;;;;;;;5014631;28;19936;-58
2022/04/19 17:03:58;;;;;;;;;;;;;;;;;;5014793;28;20015;-58
2022/04/19 17:06:23;;;;;;;;;;;;;;;;;;5014531;28;20045;-59
2022/04/19 17:08:48;;;;;;;;;;;;;;;;;;5014494;28;20004;-58
2022/04/19 17:11:13;;;;;;;;;;;;;;;;;;5014133;28;19932;-58
2022/04/19 17:13:39;;;;;;;;;;;;;;;;;;5030145;28;19917;-59
2022/04/19 17:16:04;;;;;;;;;;;;;;;;;;5014034;28;19913;-58
2022/04/19 17:18:29;;;;;;;;;;;;;;;;;;5014610;28;19917;-58
2022/04/19 17:20:54;;;;;;;;;;;;;;;;;;5012633;28;20328;-58
2022/04/19 17:23:21;;;;;;;;;;;;;;;;;;5012675;28;19959;-57
2022/04/19 17:25:46;;;;;;;;;;;;;;;;;;5013058;28;19911;-57
2022/04/19 17:28:12;;;;;;;;;;;;;;;;;;5032383;28;19908;-58
2022/04/19 17:30:37;;;;;;;;;;;;;;;;;;5034243;28;20293;-58
2022/04/19 17:33:02;;;;;;;;;;;;;;;;;;5034076;28;19909;-59
2022/04/19 17:35:27;;;;;;;;;;;;;;;;;;5013550;28;19924;-58
2022/04/19 17:37:54;;;;;;;;;;;;;;;;;;5033237;28;19909;-57
2022/04/19 17:40:19;;;;;;;;;;;;;;;;;;5018138;28;19964;-58
2022/04/19 17:42:44;;;;;;;;;;;;;;;;;;5014634;28;19910;-58
2022/04/19 17:45:10;;;;;;;;;;;;;;;;;;5015711;28;19916;-57
2022/04/19 17:47:36;;;;;;;;;;;;;;;;;;5033570;28;19956;-58